sensor_id;sensor_type;location;lat;lon;timestamp;P1;durP1;ratioP1;P2;durP2;ratioP2
48241;SDS011;34041;51.812;4.622;2023-11-18T00:01:21;17.30;;;13.70;;
48241;SDS011;34041;51.812;4.622;2023-11-18T00:04:21;19.15;;;13.95;;
48241;SDS011;34041;51.812;4.622;2023-11-18T00:07:22;18.70;;;14.07;;
48241;SDS011;34041;51.812;4.622;2023-11-18T00:10:22;20.80;;;12.93;;
48241;SDS011;34041;51.812;4.622;2023-11-18T00:13:23;17.00;;;14.23;;
48241;SDS011;34041;51.812;4.622;2023-11-18T00:16:24;20.60;;;15.32;;
48241;SDS011;34041;51.812;4.622;2023-11-18T00:19:24;18.00;;;14.70;;
48241;SDS011;34041;51.812;4.622;2023-11-18T00:22:25;21.67;;;14.82;;
48241;SDS011;34041;51.812;4.622;2023-11-18T00:25:25;21.77;;;13.67;;
48241;SDS011;34041;51.812;4.622;2023-11-18T00:28:25;17.57;;;13.83;;
48241;SDS011;34041;51.812;4.622;2023-11-18T00:31:26;23.65;;;14.85;;
48241;SDS011;34041;51.812;4.622;2023-11-18T00:34:26;23.38;;;16.13;;
48241;SDS011;34041;51.812;4.622;2023-11-18T00:37:26;23.02;;;15.98;;
48241;SDS011;34041;51.812;4.622;2023-11-18T00:40:27;16.40;;;13.55;;
48241;SDS011;34041;51.812;4.622;2023-11-18T00:43:29;20.70;;;15.27;;
48241;SDS011;34041;51.812;4.622;2023-11-18T00:46:30;25.30;;;17.35;;
48241;SDS011;34041;51.812;4.622;2023-11-18T00:49:31;21.53;;;14.63;;
48241;SDS011;34041;51.812;4.622;2023-11-18T00:52:31;23.33;;;15.75;;
48241;SDS011;34041;51.812;4.622;2023-11-18T00:55:31;19.92;;;14.25;;
48241;SDS011;34041;51.812;4.622;2023-11-18T00:58:32;22.85;;;15.48;;
48241;SDS011;34041;51.812;4.622;2023-11-18T01:01:34;23.67;;;16.15;;
48241;SDS011;34041;51.812;4.622;2023-11-18T01:04:34;18.98;;;15.00;;
48241;SDS011;34041;51.812;4.622;2023-11-18T01:07:34;21.98;;;17.92;;
48241;SDS011;34041;51.812;4.622;2023-11-18T01:10:36;18.35;;;13.50;;
48241;SDS011;34041;51.812;4.622;2023-11-18T01:13:38;26.05;;;14.80;;
48241;SDS011;34041;51.812;4.622;2023-11-18T01:16:38;16.75;;;13.77;;
48241;SDS011;34041;51.812;4.622;2023-11-18T01:19:38;18.00;;;13.43;;
48241;SDS011;34041;51.812;4.622;2023-11-18T01:22:39;18.52;;;12.25;;
48241;SDS011;34041;51.812;4.622;2023-11-18T01:25:40;20.45;;;13.48;;
48241;SDS011;34041;51.812;4.622;2023-11-18T01:28:40;23.20;;;13.32;;
48241;SDS011;34041;51.812;4.622;2023-11-18T01:31:45;17.38;;;13.68;;
48241;SDS011;34041;51.812;4.622;2023-11-18T01:34:45;21.63;;;12.43;;
48241;SDS011;34041;51.812;4.622;2023-11-18T01:37:50;20.00;;;12.38;;
48241;SDS011;34041;51.812;4.622;2023-11-18T01:40:50;27.63;;;12.63;;
48241;SDS011;34041;51.812;4.622;2023-11-18T01:43:50;16.73;;;11.60;;
48241;SDS011;34041;51.812;4.622;2023-11-18T01:46:50;18.13;;;11.80;;
48241;SDS011;34041;51.812;4.622;2023-11-18T01:49:51;13.85;;;11.02;;
48241;SDS011;34041;51.812;4.622;2023-11-18T01:52:51;14.60;;;11.90;;
48241;SDS011;34041;51.812;4.622;2023-11-18T01:55:53;17.20;;;10.93;;
48241;SDS011;34041;51.812;4.622;2023-11-18T01:58:53;20.85;;;12.50;;
48241;SDS011;34041;51.812;4.622;2023-11-18T02:01:53;23.70;;;11.90;;
48241;SDS011;34041;51.812;4.622;2023-11-18T02:04:58;19.83;;;11.82;;
48241;SDS011;34041;51.812;4.622;2023-11-18T02:08:01;16.42;;;11.55;;
48241;SDS011;34041;51.812;4.622;2023-11-18T02:11:05;16.30;;;11.32;;
48241;SDS011;34041;51.812;4.622;2023-11-18T02:14:13;17.58;;;11.70;;
48241;SDS011;34041;51.812;4.622;2023-11-18T02:17:14;19.58;;;12.35;;
48241;SDS011;34041;51.812;4.622;2023-11-18T02:20:14;18.33;;;11.57;;
48241;SDS011;34041;51.812;4.622;2023-11-18T02:23:16;19.58;;;12.38;;
48241;SDS011;34041;51.812;4.622;2023-11-18T02:26:20;18.77;;;13.40;;
48241;SDS011;34041;51.812;4.622;2023-11-18T02:29:20;15.07;;;11.35;;
48241;SDS011;34041;51.812;4.622;2023-11-18T02:32:40;14.68;;;12.27;;
48241;SDS011;34041;51.812;4.622;2023-11-18T02:35:46;23.25;;;13.70;;
48241;SDS011;34041;51.812;4.622;2023-11-18T02:38:49;16.90;;;14.13;;
48241;SDS011;34041;51.812;4.622;2023-11-18T02:41:51;15.93;;;12.88;;
48241;SDS011;34041;51.812;4.622;2023-11-18T02:44:52;18.83;;;14.75;;
48241;SDS011;34041;51.812;4.622;2023-11-18T02:47:59;18.15;;;15.27;;
48241;SDS011;34041;51.812;4.622;2023-11-18T02:51:00;18.08;;;13.38;;
48241;SDS011;34041;51.812;4.622;2023-11-18T02:54:00;16.70;;;14.50;;
48241;SDS011;34041;51.812;4.622;2023-11-18T02:57:00;24.48;;;14.52;;
48241;SDS011;34041;51.812;4.622;2023-11-18T03:00:01;18.45;;;13.88;;
48241;SDS011;34041;51.812;4.622;2023-11-18T03:03:02;19.70;;;15.38;;
48241;SDS011;34041;51.812;4.622;2023-11-18T03:06:03;19.65;;;13.77;;
48241;SDS011;34041;51.812;4.622;2023-11-18T03:09:03;15.40;;;13.52;;
48241;SDS011;34041;51.812;4.622;2023-11-18T03:12:07;25.67;;;14.30;;
48241;SDS011;34041;51.812;4.622;2023-11-18T03:15:08;21.58;;;14.48;;
48241;SDS011;34041;51.812;4.622;2023-11-18T03:18:12;18.05;;;12.68;;
48241;SDS011;34041;51.812;4.622;2023-11-18T03:21:13;17.90;;;13.48;;
48241;SDS011;34041;51.812;4.622;2023-11-18T03:24:14;16.17;;;14.07;;
48241;SDS011;34041;51.812;4.622;2023-11-18T03:27:16;18.90;;;14.13;;
48241;SDS011;34041;51.812;4.622;2023-11-18T03:30:16;18.25;;;14.35;;
48241;SDS011;34041;51.812;4.622;2023-11-18T03:33:17;18.67;;;13.90;;
48241;SDS011;34041;51.812;4.622;2023-11-18T03:36:17;24.40;;;14.10;;
48241;SDS011;34041;51.812;4.622;2023-11-18T03:39:18;17.80;;;14.45;;
48241;SDS011;34041;51.812;4.622;2023-11-18T03:42:18;19.90;;;16.20;;
48241;SDS011;34041;51.812;4.622;2023-11-18T03:45:18;20.05;;;14.07;;
48241;SDS011;34041;51.812;4.622;2023-11-18T03:48:19;25.17;;;14.73;;
48241;SDS011;34041;51.812;4.622;2023-11-18T03:51:20;18.98;;;13.75;;
48241;SDS011;34041;51.812;4.622;2023-11-18T03:54:20;17.33;;;13.10;;
48241;SDS011;34041;51.812;4.622;2023-11-18T03:57:20;17.92;;;12.90;;
48241;SDS011;34041;51.812;4.622;2023-11-18T04:00:21;16.85;;;12.68;;
48241;SDS011;34041;51.812;4.622;2023-11-18T04:03:21;14.85;;;11.90;;
48241;SDS011;34041;51.812;4.622;2023-11-18T04:06:21;17.17;;;13.35;;
48241;SDS011;34041;51.812;4.622;2023-11-18T04:09:22;15.95;;;12.98;;
48241;SDS011;34041;51.812;4.622;2023-11-18T04:12:22;16.73;;;12.63;;
48241;SDS011;34041;51.812;4.622;2023-11-18T04:15:24;19.45;;;12.60;;
48241;SDS011;34041;51.812;4.622;2023-11-18T04:18:25;16.50;;;12.30;;
48241;SDS011;34041;51.812;4.622;2023-11-18T04:21:25;17.35;;;12.13;;
48241;SDS011;34041;51.812;4.622;2023-11-18T04:24:25;18.00;;;13.97;;
48241;SDS011;34041;51.812;4.622;2023-11-18T04:27:25;14.43;;;11.85;;
48241;SDS011;34041;51.812;4.622;2023-11-18T04:30:26;16.50;;;12.10;;
48241;SDS011;34041;51.812;4.622;2023-11-18T04:33:26;26.05;;;13.10;;
48241;SDS011;34041;51.812;4.622;2023-11-18T04:36:27;14.93;;;10.95;;
48241;SDS011;34041;51.812;4.622;2023-11-18T04:39:27;17.05;;;11.20;;
48241;SDS011;34041;51.812;4.622;2023-11-18T04:42:28;18.33;;;11.38;;
48241;SDS011;34041;51.812;4.622;2023-11-18T04:45:29;15.15;;;11.00;;
48241;SDS011;34041;51.812;4.622;2023-11-18T04:48:30;19.85;;;11.98;;
48241;SDS011;34041;51.812;4.622;2023-11-18T04:51:31;16.67;;;11.63;;
48241;SDS011;34041;51.812;4.622;2023-11-18T04:54:32;20.50;;;12.13;;
48241;SDS011;34041;51.812;4.622;2023-11-18T04:57:33;23.60;;;11.95;;
48241;SDS011;34041;51.812;4.622;2023-11-18T05:00:33;15.68;;;11.50;;
48241;SDS011;34041;51.812;4.622;2023-11-18T05:03:34;14.93;;;10.77;;
48241;SDS011;34041;51.812;4.622;2023-11-18T05:06:34;15.82;;;10.73;;
48241;SDS011;34041;51.812;4.622;2023-11-18T05:09:34;14.67;;;10.13;;
48241;SDS011;34041;51.812;4.622;2023-11-18T05:12:35;22.13;;;12.13;;
48241;SDS011;34041;51.812;4.622;2023-11-18T05:15:36;16.55;;;12.10;;
48241;SDS011;34041;51.812;4.622;2023-11-18T05:18:37;20.38;;;11.38;;
48241;SDS011;34041;51.812;4.622;2023-11-18T05:21:38;26.60;;;11.95;;
48241;SDS011;34041;51.812;4.622;2023-11-18T05:24:39;19.50;;;11.07;;
48241;SDS011;34041;51.812;4.622;2023-11-18T05:27:39;17.70;;;10.33;;
48241;SDS011;34041;51.812;4.622;2023-11-18T05:30:43;27.40;;;13.38;;
48241;SDS011;34041;51.812;4.622;2023-11-18T05:33:44;17.75;;;11.75;;
48241;SDS011;34041;51.812;4.622;2023-11-18T05:36:47;17.10;;;11.27;;
48241;SDS011;34041;51.812;4.622;2023-11-18T05:39:48;17.67;;;10.75;;
48241;SDS011;34041;51.812;4.622;2023-11-18T05:42:53;18.50;;;12.30;;
48241;SDS011;34041;51.812;4.622;2023-11-18T05:45:55;17.77;;;11.18;;
48241;SDS011;34041;51.812;4.622;2023-11-18T05:49:14;16.20;;;9.90;;
48241;SDS011;34041;51.812;4.622;2023-11-18T05:52:14;19.45;;;10.27;;
48241;SDS011;34041;51.812;4.622;2023-11-18T05:55:14;19.70;;;11.00;;
48241;SDS011;34041;51.812;4.622;2023-11-18T05:58:15;15.50;;;10.67;;
48241;SDS011;34041;51.812;4.622;2023-11-18T06:01:15;25.08;;;11.75;;
48241;SDS011;34041;51.812;4.622;2023-11-18T06:04:16;18.73;;;11.00;;
48241;SDS011;34041;51.812;4.622;2023-11-18T06:07:17;24.42;;;13.00;;
48241;SDS011;34041;51.812;4.622;2023-11-18T06:10:19;20.67;;;12.20;;
48241;SDS011;34041;51.812;4.622;2023-11-18T06:13:20;18.17;;;11.32;;
48241;SDS011;34041;51.812;4.622;2023-11-18T06:16:23;15.70;;;11.30;;
48241;SDS011;34041;51.812;4.622;2023-11-18T06:19:27;18.13;;;11.02;;
48241;SDS011;34041;51.812;4.622;2023-11-18T06:22:27;22.35;;;10.82;;
48241;SDS011;34041;51.812;4.622;2023-11-18T06:25:27;16.95;;;11.40;;
48241;SDS011;34041;51.812;4.622;2023-11-18T06:28:29;15.85;;;11.00;;
48241;SDS011;34041;51.812;4.622;2023-11-18T06:31:30;17.15;;;10.40;;
48241;SDS011;34041;51.812;4.622;2023-11-18T06:34:30;20.73;;;9.85;;
48241;SDS011;34041;51.812;4.622;2023-11-18T06:37:34;21.83;;;12.63;;
48241;SDS011;34041;51.812;4.622;2023-11-18T06:40:34;21.83;;;10.70;;
48241;SDS011;34041;51.812;4.622;2023-11-18T06:43:35;18.95;;;10.05;;
48241;SDS011;34041;51.812;4.622;2023-11-18T06:46:54;18.63;;;10.65;;
48241;SDS011;34041;51.812;4.622;2023-11-18T06:49:54;15.52;;;9.50;;
48241;SDS011;34041;51.812;4.622;2023-11-18T06:52:56;13.70;;;7.63;;
48241;SDS011;34041;51.812;4.622;2023-11-18T06:55:56;13.40;;;9.60;;
48241;SDS011;34041;51.812;4.622;2023-11-18T06:58:56;16.77;;;9.57;;
48241;SDS011;34041;51.812;4.622;2023-11-18T07:01:57;18.95;;;9.38;;
48241;SDS011;34041;51.812;4.622;2023-11-18T07:04:57;19.10;;;9.47;;
48241;SDS011;34041;51.812;4.622;2023-11-18T07:07:57;16.67;;;8.00;;
48241;SDS011;34041;51.812;4.622;2023-11-18T07:10:57;21.97;;;10.27;;
48241;SDS011;34041;51.812;4.622;2023-11-18T07:13:57;14.07;;;8.95;;
48241;SDS011;34041;51.812;4.622;2023-11-18T07:16:59;12.95;;;8.18;;
48241;SDS011;34041;51.812;4.622;2023-11-18T07:19:59;19.48;;;8.80;;
48241;SDS011;34041;51.812;4.622;2023-11-18T07:23:00;20.00;;;8.70;;
48241;SDS011;34041;51.812;4.622;2023-11-18T07:26:00;11.23;;;7.17;;
48241;SDS011;34041;51.812;4.622;2023-11-18T07:29:01;15.18;;;8.02;;
48241;SDS011;34041;51.812;4.622;2023-11-18T07:32:04;17.88;;;7.40;;
48241;SDS011;34041;51.812;4.622;2023-11-18T07:35:05;20.40;;;8.10;;
48241;SDS011;34041;51.812;4.622;2023-11-18T07:38:09;14.90;;;7.35;;
48241;SDS011;34041;51.812;4.622;2023-11-18T07:41:10;18.23;;;8.43;;
48241;SDS011;34041;51.812;4.622;2023-11-18T07:44:21;15.93;;;6.53;;
48241;SDS011;34041;51.812;4.622;2023-11-18T07:47:23;14.23;;;7.13;;
48241;SDS011;34041;51.812;4.622;2023-11-18T07:50:23;12.55;;;7.25;;
48241;SDS011;34041;51.812;4.622;2023-11-18T07:53:24;12.43;;;7.10;;
48241;SDS011;34041;51.812;4.622;2023-11-18T07:56:24;12.77;;;6.03;;
48241;SDS011;34041;51.812;4.622;2023-11-18T07:59:24;9.57;;;6.45;;
48241;SDS011;34041;51.812;4.622;2023-11-18T08:02:24;9.60;;;6.57;;
48241;SDS011;34041;51.812;4.622;2023-11-18T08:05:25;13.33;;;8.27;;
48241;SDS011;34041;51.812;4.622;2023-11-18T08:08:25;12.13;;;6.82;;
48241;SDS011;34041;51.812;4.622;2023-11-18T08:11:25;11.70;;;6.60;;
48241;SDS011;34041;51.812;4.622;2023-11-18T08:14:26;15.03;;;7.17;;
48241;SDS011;34041;51.812;4.622;2023-11-18T08:17:26;11.35;;;6.05;;
48241;SDS011;34041;51.812;4.622;2023-11-18T08:20:27;11.77;;;6.28;;
48241;SDS011;34041;51.812;4.622;2023-11-18T08:23:27;15.93;;;7.65;;
48241;SDS011;34041;51.812;4.622;2023-11-18T08:26:31;11.73;;;6.13;;
48241;SDS011;34041;51.812;4.622;2023-11-18T08:29:32;14.20;;;6.37;;
48241;SDS011;34041;51.812;4.622;2023-11-18T08:32:32;8.45;;;5.05;;
48241;SDS011;34041;51.812;4.622;2023-11-18T08:35:32;10.03;;;5.60;;
48241;SDS011;34041;51.812;4.622;2023-11-18T08:38:33;11.57;;;6.10;;
48241;SDS011;34041;51.812;4.622;2023-11-18T08:41:35;9.70;;;5.68;;
48241;SDS011;34041;51.812;4.622;2023-11-18T08:44:35;12.18;;;6.45;;
48241;SDS011;34041;51.812;4.622;2023-11-18T08:47:35;11.90;;;5.40;;
48241;SDS011;34041;51.812;4.622;2023-11-18T08:50:38;11.85;;;5.05;;
48241;SDS011;34041;51.812;4.622;2023-11-18T08:53:43;10.05;;;5.30;;
48241;SDS011;34041;51.812;4.622;2023-11-18T08:56:43;13.35;;;4.97;;
48241;SDS011;34041;51.812;4.622;2023-11-18T08:59:44;13.73;;;5.93;;
48241;SDS011;34041;51.812;4.622;2023-11-18T09:02:44;9.27;;;4.63;;
48241;SDS011;34041;51.812;4.622;2023-11-18T09:05:45;15.07;;;5.63;;
48241;SDS011;34041;51.812;4.622;2023-11-18T09:08:56;12.20;;;5.47;;
48241;SDS011;34041;51.812;4.622;2023-11-18T09:11:57;14.20;;;5.57;;
48241;SDS011;34041;51.812;4.622;2023-11-18T09:14:58;12.07;;;5.93;;
48241;SDS011;34041;51.812;4.622;2023-11-18T09:17:58;9.37;;;4.23;;
48241;SDS011;34041;51.812;4.622;2023-11-18T09:20:59;8.82;;;4.35;;
48241;SDS011;34041;51.812;4.622;2023-11-18T09:24:01;11.30;;;5.07;;
48241;SDS011;34041;51.812;4.622;2023-11-18T09:27:05;7.72;;;4.43;;
48241;SDS011;34041;51.812;4.622;2023-11-18T09:30:06;9.32;;;4.53;;
48241;SDS011;34041;51.812;4.622;2023-11-18T09:33:13;8.10;;;4.10;;
48241;SDS011;34041;51.812;4.622;2023-11-18T09:36:14;10.55;;;4.97;;
48241;SDS011;34041;51.812;4.622;2023-11-18T09:39:14;12.43;;;4.95;;
48241;SDS011;34041;51.812;4.622;2023-11-18T09:42:29;8.18;;;4.10;;
48241;SDS011;34041;51.812;4.622;2023-11-18T09:45:29;8.23;;;4.60;;
48241;SDS011;34041;51.812;4.622;2023-11-18T09:48:31;8.38;;;3.38;;
48241;SDS011;34041;51.812;4.622;2023-11-18T09:51:41;7.85;;;4.85;;
48241;SDS011;34041;51.812;4.622;2023-11-18T09:54:48;11.70;;;4.97;;
48241;SDS011;34041;51.812;4.622;2023-11-18T09:57:55;8.20;;;3.80;;
48241;SDS011;34041;51.812;4.622;2023-11-18T10:00:59;6.40;;;3.22;;
48241;SDS011;34041;51.812;4.622;2023-11-18T10:04:02;4.95;;;3.05;;
48241;SDS011;34041;51.812;4.622;2023-11-18T10:07:06;10.63;;;3.90;;
48241;SDS011;34041;51.812;4.622;2023-11-18T10:10:11;5.88;;;3.55;;
48241;SDS011;34041;51.812;4.622;2023-11-18T10:13:14;5.60;;;2.45;;
48241;SDS011;34041;51.812;4.622;2023-11-18T10:16:24;7.68;;;3.17;;
48241;SDS011;34041;51.812;4.622;2023-11-18T10:19:48;4.97;;;2.85;;
48241;SDS011;34041;51.812;4.622;2023-11-18T10:22:49;6.57;;;3.20;;
48241;SDS011;34041;51.812;4.622;2023-11-18T10:25:50;8.82;;;3.00;;
48241;SDS011;34041;51.812;4.622;2023-11-18T10:28:52;11.15;;;3.45;;
48241;SDS011;34041;51.812;4.622;2023-11-18T10:32:01;7.65;;;3.05;;
48241;SDS011;34041;51.812;4.622;2023-11-18T10:35:05;8.25;;;4.00;;
48241;SDS011;34041;51.812;4.622;2023-11-18T10:38:06;8.38;;;3.58;;
48241;SDS011;34041;51.812;4.622;2023-11-18T10:41:07;9.50;;;4.03;;
48241;SDS011;34041;51.812;4.622;2023-11-18T10:44:08;7.20;;;3.65;;
48241;SDS011;34041;51.812;4.622;2023-11-18T10:47:14;5.80;;;3.65;;
48241;SDS011;34041;51.812;4.622;2023-11-18T10:50:17;6.03;;;3.20;;
48241;SDS011;34041;51.812;4.622;2023-11-18T10:53:19;6.72;;;2.90;;
48241;SDS011;34041;51.812;4.622;2023-11-18T10:56:25;7.53;;;3.47;;
48241;SDS011;34041;51.812;4.622;2023-11-18T10:59:32;7.07;;;3.55;;
48241;SDS011;34041;51.812;4.622;2023-11-18T11:02:33;7.88;;;3.47;;
48241;SDS011;34041;51.812;4.622;2023-11-18T11:05:39;5.65;;;3.42;;
48241;SDS011;34041;51.812;4.622;2023-11-18T11:08:42;6.35;;;2.78;;
48241;SDS011;34041;51.812;4.622;2023-11-18T11:12:02;6.70;;;3.15;;
48241;SDS011;34041;51.812;4.622;2023-11-18T11:15:08;7.57;;;3.38;;
48241;SDS011;34041;51.812;4.622;2023-11-18T11:18:14;6.40;;;2.65;;
48241;SDS011;34041;51.812;4.622;2023-11-18T11:21:15;5.93;;;3.13;;
48241;SDS011;34041;51.812;4.622;2023-11-18T11:24:28;6.67;;;3.40;;
48241;SDS011;34041;51.812;4.622;2023-11-18T11:27:38;8.82;;;2.75;;
48241;SDS011;34041;51.812;4.622;2023-11-18T11:33:49;5.05;;;3.08;;
48241;SDS011;34041;51.812;4.622;2023-11-18T11:36:53;8.52;;;3.78;;
48241;SDS011;34041;51.812;4.622;2023-11-18T11:39:54;7.47;;;3.13;;
48241;SDS011;34041;51.812;4.622;2023-11-18T11:42:58;7.22;;;2.63;;
48241;SDS011;34041;51.812;4.622;2023-11-18T11:46:04;6.20;;;2.95;;
48241;SDS011;34041;51.812;4.622;2023-11-18T11:49:11;6.45;;;3.40;;
48241;SDS011;34041;51.812;4.622;2023-11-18T11:52:30;8.10;;;3.17;;
48241;SDS011;34041;51.812;4.622;2023-11-18T11:55:41;6.35;;;3.15;;
48241;SDS011;34041;51.812;4.622;2023-11-18T11:58:45;4.38;;;2.90;;
48241;SDS011;34041;51.812;4.622;2023-11-18T12:01:45;5.82;;;2.92;;
48241;SDS011;34041;51.812;4.622;2023-11-18T12:04:53;3.92;;;3.20;;
48241;SDS011;34041;51.812;4.622;2023-11-18T12:07:54;4.47;;;2.17;;
48241;SDS011;34041;51.812;4.622;2023-11-18T12:10:55;7.68;;;4.43;;
48241;SDS011;34041;51.812;4.622;2023-11-18T12:17:12;6.70;;;2.63;;
48241;SDS011;34041;51.812;4.622;2023-11-18T12:23:53;4.35;;;3.03;;
48241;SDS011;34041;51.812;4.622;2023-11-18T12:27:02;3.58;;;2.70;;
48241;SDS011;34041;51.812;4.622;2023-11-18T12:33:18;6.88;;;3.13;;
48241;SDS011;34041;51.812;4.622;2023-11-18T12:43:15;4.63;;;2.90;;
48241;SDS011;34041;51.812;4.622;2023-11-18T12:49:20;6.40;;;2.72;;
48241;SDS011;34041;51.812;4.622;2023-11-18T12:52:23;3.10;;;2.20;;
48241;SDS011;34041;51.812;4.622;2023-11-18T12:55:23;3.85;;;2.35;;
48241;SDS011;34041;51.812;4.622;2023-11-18T12:58:26;2.60;;;2.03;;
48241;SDS011;34041;51.812;4.622;2023-11-18T13:01:26;3.35;;;1.77;;
48241;SDS011;34041;51.812;4.622;2023-11-18T13:04:27;3.45;;;1.80;;
48241;SDS011;34041;51.812;4.622;2023-11-18T13:07:27;3.30;;;2.28;;
48241;SDS011;34041;51.812;4.622;2023-11-18T13:10:28;4.53;;;2.15;;
48241;SDS011;34041;51.812;4.622;2023-11-18T13:13:28;5.30;;;1.55;;
48241;SDS011;34041;51.812;4.622;2023-11-18T13:16:29;1.95;;;1.30;;
48241;SDS011;34041;51.812;4.622;2023-11-18T13:19:30;2.88;;;1.40;;
48241;SDS011;34041;51.812;4.622;2023-11-18T13:22:32;2.10;;;1.30;;
48241;SDS011;34041;51.812;4.622;2023-11-18T13:25:32;3.13;;;1.52;;
48241;SDS011;34041;51.812;4.622;2023-11-18T13:28:32;2.55;;;1.30;;
48241;SDS011;34041;51.812;4.622;2023-11-18T13:31:33;3.17;;;1.40;;
48241;SDS011;34041;51.812;4.622;2023-11-18T13:34:33;5.95;;;1.88;;
48241;SDS011;34041;51.812;4.622;2023-11-18T13:37:37;2.30;;;1.40;;
48241;SDS011;34041;51.812;4.622;2023-11-18T13:40:44;3.20;;;2.75;;
48241;SDS011;34041;51.812;4.622;2023-11-18T13:43:45;1.70;;;1.13;;
48241;SDS011;34041;51.812;4.622;2023-11-18T13:46:47;2.30;;;1.30;;
48241;SDS011;34041;51.812;4.622;2023-11-18T13:49:49;2.05;;;1.25;;
48241;SDS011;34041;51.812;4.622;2023-11-18T13:52:50;2.78;;;1.45;;
48241;SDS011;34041;51.812;4.622;2023-11-18T13:55:50;3.03;;;1.65;;
48241;SDS011;34041;51.812;4.622;2023-11-18T13:58:50;2.42;;;1.27;;
48241;SDS011;34041;51.812;4.622;2023-11-18T14:01:54;2.90;;;1.48;;
48241;SDS011;34041;51.812;4.622;2023-11-18T14:04:54;2.00;;;1.08;;
48241;SDS011;34041;51.812;4.622;2023-11-18T14:07:57;2.70;;;1.23;;
48241;SDS011;34041;51.812;4.622;2023-11-18T14:10:59;2.95;;;1.15;;
48241;SDS011;34041;51.812;4.622;2023-11-18T14:14:00;1.67;;;1.10;;
48241;SDS011;34041;51.812;4.622;2023-11-18T14:17:00;2.13;;;1.17;;
48241;SDS011;34041;51.812;4.622;2023-11-18T14:20:01;1.92;;;1.35;;
48241;SDS011;34041;51.812;4.622;2023-11-18T14:23:05;2.17;;;1.10;;
48241;SDS011;34041;51.812;4.622;2023-11-18T14:26:05;2.00;;;1.08;;
48241;SDS011;34041;51.812;4.622;2023-11-18T14:29:07;1.80;;;1.10;;
48241;SDS011;34041;51.812;4.622;2023-11-18T14:32:08;1.25;;;0.80;;
48241;SDS011;34041;51.812;4.622;2023-11-18T14:35:08;1.73;;;1.00;;
48241;SDS011;34041;51.812;4.622;2023-11-18T14:38:10;1.77;;;1.13;;
48241;SDS011;34041;51.812;4.622;2023-11-18T14:41:12;1.90;;;1.00;;
48241;SDS011;34041;51.812;4.622;2023-11-18T14:44:13;2.97;;;1.50;;
48241;SDS011;34041;51.812;4.622;2023-11-18T14:47:13;3.47;;;1.98;;
48241;SDS011;34041;51.812;4.622;2023-11-18T14:50:14;2.75;;;1.60;;
48241;SDS011;34041;51.812;4.622;2023-11-18T14:53:20;1.77;;;1.00;;
48241;SDS011;34041;51.812;4.622;2023-11-18T14:56:20;3.05;;;1.70;;
48241;SDS011;34041;51.812;4.622;2023-11-18T14:59:21;2.13;;;1.42;;
48241;SDS011;34041;51.812;4.622;2023-11-18T15:02:22;2.22;;;1.48;;
48241;SDS011;34041;51.812;4.622;2023-11-18T15:05:25;3.17;;;1.58;;
48241;SDS011;34041;51.812;4.622;2023-11-18T15:08:25;2.38;;;1.60;;
48241;SDS011;34041;51.812;4.622;2023-11-18T15:11:26;3.40;;;2.08;;
48241;SDS011;34041;51.812;4.622;2023-11-18T15:14:26;3.63;;;2.05;;
48241;SDS011;34041;51.812;4.622;2023-11-18T15:17:26;4.40;;;2.40;;
48241;SDS011;34041;51.812;4.622;2023-11-18T15:20:26;3.60;;;3.17;;
48241;SDS011;34041;51.812;4.622;2023-11-18T15:23:27;3.33;;;3.03;;
48241;SDS011;34041;51.812;4.622;2023-11-18T15:26:27;3.95;;;3.22;;
48241;SDS011;34041;51.812;4.622;2023-11-18T15:29:27;3.75;;;2.75;;
48241;SDS011;34041;51.812;4.622;2023-11-18T15:32:33;3.38;;;2.85;;
48241;SDS011;34041;51.812;4.622;2023-11-18T15:35:36;5.40;;;3.77;;
48241;SDS011;34041;51.812;4.622;2023-11-18T15:38:38;3.80;;;3.22;;
48241;SDS011;34041;51.812;4.622;2023-11-18T15:41:38;4.82;;;4.15;;
48241;SDS011;34041;51.812;4.622;2023-11-18T15:44:38;4.80;;;4.13;;
48241;SDS011;34041;51.812;4.622;2023-11-18T15:47:39;4.50;;;4.10;;
48241;SDS011;34041;51.812;4.622;2023-11-18T15:50:39;5.45;;;4.70;;
48241;SDS011;34041;51.812;4.622;2023-11-18T15:53:40;4.72;;;4.28;;
48241;SDS011;34041;51.812;4.622;2023-11-18T15:56:40;5.10;;;4.40;;
48241;SDS011;34041;51.812;4.622;2023-11-18T15:59:42;10.38;;;4.88;;
48241;SDS011;34041;51.812;4.622;2023-11-18T16:02:43;4.30;;;3.90;;
48241;SDS011;34041;51.812;4.622;2023-11-18T16:05:44;4.78;;;4.28;;
48241;SDS011;34041;51.812;4.622;2023-11-18T16:08:45;4.22;;;3.83;;
48241;SDS011;34041;51.812;4.622;2023-11-18T16:11:47;4.60;;;4.20;;
48241;SDS011;34041;51.812;4.622;2023-11-18T16:14:49;5.15;;;4.65;;
48241;SDS011;34041;51.812;4.622;2023-11-18T16:17:49;5.15;;;4.65;;
48241;SDS011;34041;51.812;4.622;2023-11-18T16:20:50;5.95;;;5.45;;
48241;SDS011;34041;51.812;4.622;2023-11-18T16:23:50;6.07;;;5.47;;
48241;SDS011;34041;51.812;4.622;2023-11-18T16:26:50;6.17;;;5.53;;
48241;SDS011;34041;51.812;4.622;2023-11-18T16:29:50;5.93;;;5.32;;
48241;SDS011;34041;51.812;4.622;2023-11-18T16:32:51;6.78;;;6.13;;
48241;SDS011;34041;51.812;4.622;2023-11-18T16:35:51;7.72;;;7.03;;
48241;SDS011;34041;51.812;4.622;2023-11-18T16:38:53;7.93;;;7.13;;
48241;SDS011;34041;51.812;4.622;2023-11-18T16:41:57;8.98;;;8.15;;
48241;SDS011;34041;51.812;4.622;2023-11-18T16:44:58;9.20;;;8.33;;
48241;SDS011;34041;51.812;4.622;2023-11-18T16:47:59;11.23;;;10.13;;
48241;SDS011;34041;51.812;4.622;2023-11-18T16:51:00;11.17;;;10.07;;
48241;SDS011;34041;51.812;4.622;2023-11-18T16:54:01;9.95;;;8.95;;
48241;SDS011;34041;51.812;4.622;2023-11-18T16:57:02;9.15;;;8.35;;
48241;SDS011;34041;51.812;4.622;2023-11-18T17:00:02;9.43;;;8.52;;
48241;SDS011;34041;51.812;4.622;2023-11-18T17:03:07;8.05;;;7.25;;
48241;SDS011;34041;51.812;4.622;2023-11-18T17:06:09;9.05;;;7.55;;
48241;SDS011;34041;51.812;4.622;2023-11-18T17:09:10;8.15;;;7.25;;
48241;SDS011;34041;51.812;4.622;2023-11-18T17:12:11;9.30;;;8.38;;
48241;SDS011;34041;51.812;4.622;2023-11-18T17:15:21;10.00;;;9.00;;
48241;SDS011;34041;51.812;4.622;2023-11-18T17:18:22;10.25;;;8.43;;
48241;SDS011;34041;51.812;4.622;2023-11-18T17:21:22;9.48;;;8.55;;
48241;SDS011;34041;51.812;4.622;2023-11-18T17:24:22;9.98;;;9.05;;
48241;SDS011;34041;51.812;4.622;2023-11-18T17:27:22;11.37;;;10.27;;
48241;SDS011;34041;51.812;4.622;2023-11-18T17:30:24;10.70;;;9.50;;
48241;SDS011;34041;51.812;4.622;2023-11-18T17:33:24;11.30;;;10.07;;
48241;SDS011;34041;51.812;4.622;2023-11-18T17:36:28;10.53;;;9.53;;
48241;SDS011;34041;51.812;4.622;2023-11-18T17:39:30;10.60;;;8.65;;
48241;SDS011;34041;51.812;4.622;2023-11-18T17:42:30;10.30;;;9.20;;
48241;SDS011;34041;51.812;4.622;2023-11-18T17:45:31;11.38;;;10.23;;
48241;SDS011;34041;51.812;4.622;2023-11-18T17:48:32;10.23;;;9.02;;
48241;SDS011;34041;51.812;4.622;2023-11-18T17:51:34;11.50;;;10.35;;
48241;SDS011;34041;51.812;4.622;2023-11-18T17:54:34;11.70;;;10.55;;
48241;SDS011;34041;51.812;4.622;2023-11-18T17:57:34;9.77;;;8.77;;
48241;SDS011;34041;51.812;4.622;2023-11-18T18:00:35;11.15;;;10.05;;
48241;SDS011;34041;51.812;4.622;2023-11-18T18:03:36;11.55;;;9.85;;
48241;SDS011;34041;51.812;4.622;2023-11-18T18:06:36;11.17;;;9.90;;
48241;SDS011;34041;51.812;4.622;2023-11-18T18:09:36;10.02;;;9.00;;
48241;SDS011;34041;51.812;4.622;2023-11-18T18:12:37;11.90;;;10.68;;
48241;SDS011;34041;51.812;4.622;2023-11-18T18:15:38;9.98;;;8.55;;
48241;SDS011;34041;51.812;4.622;2023-11-18T18:18:38;10.53;;;9.53;;
48241;SDS011;34041;51.812;4.622;2023-11-18T18:21:38;10.50;;;9.50;;
48241;SDS011;34041;51.812;4.622;2023-11-18T18:24:38;10.17;;;9.10;;